Time;durP1;ratioP1;P1;durP2;ratioP2;P2;SDS_P1;SDS_P2;PMS_P1;PMS_P2;Temp;Humidity;BMP_temperature;BMP_pressure;BME280_temperature;BME280_humidity;BME280_pressure;Samples;Min_cycle;Max_cycle;Signal;HPM_P1;HPM_P2
2022/06/10 00:00:31;;;;;;;;;;;;;;;22.46;79.55;96135.34;605349;234;65061;-68
2022/06/10 00:02:58;;;;;;;;;;;;;;;22.47;79.62;96136.13;605387;234;67230;-68
2022/06/10 00:05:27;;;;;;;;;;;;;;;22.46;79.72;96129.98;605333;234;66656;-68
2022/06/10 00:07:55;;;;;;;;;;;;;;;22.46;79.63;96126.52;605351;234;65084;-68
2022/06/10 00:10:24;;;;;;;;;;;;;;;22.47;79.57;96130.77;605264;233;66972;-68
2022/06/10 00:12:51;;;;;;;;;;;;;;;22.46;79.50;96131.88;605351;234;66772;-68
2022/06/10 00:15:19;;;;;;;;;;;;;;;22.46;79.47;96129.20;605350;234;65097;-68
2022/06/10 00:17:47;;;;;;;;;;;;;;;22.46;79.49;96131.88;605345;234;64971;-68
2022/06/10 00:20:16;;;;;;;;;;;;;;;22.46;79.56;96129.20;605290;234;64935;-68
2022/06/10 00:22:44;;;;;;;;;;;;;;;22.45;79.67;96128.38;605298;234;64909;-68
2022/06/10 00:25:12;;;;;;;;;;;;;;;22.46;79.67;96126.52;605298;234;67139;-68
2022/06/10 00:27:40;;;;;;;;;;;;;;;22.45;79.63;96122.24;605352;234;66998;-67
2022/06/10 00:30:08;;;;;;;;;;;;;;;22.46;79.69;96121.17;605317;234;62905;-67
2022/06/10 00:32:36;;;;;;;;;;;;;;;22.45;79.71;96124.92;605288;234;64985;-67
2022/06/10 00:35:04;;;;;;;;;;;;;;;22.46;79.69;96118.48;605307;234;64986;-68
2022/06/10 00:37:32;;;;;;;;;;;;;;;22.46;79.72;96126.52;605303;234;63060;-67
2022/06/10 00:39:59;;;;;;;;;;;;;;;22.46;79.75;96126.52;605361;234;64911;-67
2022/06/10 00:42:27;;;;;;;;;;;;;;;22.45;79.83;96123.03;605349;234;66779;-67
2022/06/10 00:44:55;;;;;;;;;;;;;;;22.46;79.86;96124.62;605313;234;65033;-67
2022/06/10 00:47:43;;;;;;;;;;;;;;;22.45;80.01;96123.03;605340;234;67201;-67
2022/06/10 00:50:27;;;;;;;;;;;;;;;22.46;80.02;96129.20;605288;234;65161;-68
2022/06/10 00:52:59;;;;;;;;;;;;;;;22.45;80.04;96135.63;605319;234;65797;-67
2022/06/10 00:55:30;;;;;;;;;;;;;;;22.45;79.99;96138.30;605304;234;67225;-68
2022/06/10 00:58:00;;;;;;;;;;;;;;;22.44;80.10;96126.02;605334;234;66881;-69
2022/06/10 01:00:28;;;;;;;;;;;;;;;22.44;80.14;96131.38;604928;234;64927;-68
2022/06/10 01:02:56;;;;;;;;;;;;;;;22.44;80.07;96131.38;605290;234;64971;-68
2022/06/10 01:05:25;;;;;;;;;;;;;;;22.44;80.04;96134.84;605321;234;65005;-68
2022/06/10 01:08:06;;;;;;;;;;;;;;;22.44;79.96;96131.38;605336;234;64759;-68
2022/06/10 01:10:52;;;;;;;;;;;;;;;22.44;80.02;96136.73;605826;234;64600;-67
2022/06/10 01:13:24;;;;;;;;;;;;;;;22.43;80.14;96124.45;606699;234;65070;-69
2022/06/10 01:15:59;;;;;;;;;;;;;;;22.44;80.11;96131.38;606458;234;63821;-69
2022/06/10 01:18:44;;;;;;;;;;;;;;;22.44;80.07;96134.05;603945;234;68173;-68
2022/06/10 01:21:25;;;;;;;;;;;;;;;22.43;79.94;96132.48;606503;234;67064;-68
2022/06/10 01:23:55;;;;;;;;;;;;;;;22.44;79.95;96126.02;606646;234;65296;-69
2022/06/10 01:26:27;;;;;;;;;;;;;;;22.43;80.00;96129.80;606615;234;67209;-69
2022/06/10 01:28:59;;;;;;;;;;;;;;;22.42;80.18;96123.63;606651;234;64985;-69
2022/06/10 01:31:33;;;;;;;;;;;;;;;22.43;80.21;96125.23;606654;234;65170;-69
2022/06/10 01:34:08;;;;;;;;;;;;;;;22.43;80.28;96127.13;606560;234;64852;-68
2022/06/10 01:36:40;;;;;;;;;;;;;;;22.42;80.28;96134.34;606396;234;64510;-68
2022/06/10 01:39:15;;;;;;;;;;;;;;;22.43;80.22;96129.80;606110;234;65216;-68
2022/06/10 01:41:54;;;;;;;;;;;;;;;22.43;80.25;96130.59;605490;234;67297;-67
2022/06/10 01:44:40;;;;;;;;;;;;;;;22.43;80.29;96127.13;606643;234;66980;-67
2022/06/10 01:47:09;;;;;;;;;;;;;;;22.43;80.32;96135.16;606636;234;65422;-68
2022/06/10 01:49:41;;;;;;;;;;;;;;;22.43;80.31;96137.84;606515;234;65185;-68
2022/06/10 01:52:16;;;;;;;;;;;;;;;22.43;80.28;96140.52;606554;234;64573;-67
2022/06/10 01:54:51;;;;;;;;;;;;;;;22.43;80.30;96140.52;606626;234;65133;-67
2022/06/10 01:57:25;;;;;;;;;;;;;;;22.41;80.34;96143.48;606561;232;67200;-67
2022/06/10 01:59:54;;;;;;;;;;;;;;;22.42;80.41;96139.70;606603;232;66688;-69
2022/06/10 02:02:23;;;;;;;;;;;;;;;22.42;80.49;96147.73;606671;234;65047;-68
2022/06/10 02:04:52;;;;;;;;;;;;;;;22.42;80.52;96136.23;606637;234;64884;-68
2022/06/10 02:07:25;;;;;;;;;;;;;;;22.42;80.51;96136.23;606571;234;68054;-68
2022/06/10 02:09:53;;;;;;;;;;;;;;;22.42;80.56;96139.70;606274;233;65146;-68
2022/06/10 02:12:22;;;;;;;;;;;;;;;22.41;80.61;96132.77;606523;232;67238;-67
2022/06/10 02:14:51;;;;;;;;;;;;;;;22.42;80.45;96128.20;606524;234;66956;-68
2022/06/10 02:17:20;;;;;;;;;;;;;;;22.42;80.42;96133.55;606552;232;62747;-68
2022/06/10 02:19:49;;;;;;;;;;;;;;;22.42;80.54;96133.55;606641;234;67044;-68
2022/06/10 02:22:21;;;;;;;;;;;;;;;22.42;80.67;96133.55;606585;234;64920;-68
2022/06/10 02:24:52;;;;;;;;;;;;;;;22.42;80.67;96141.59;605016;234;62923;-69
2022/06/10 02:27:21;;;;;;;;;;;;;;;22.42;80.65;96144.27;606635;234;66720;-68
2022/06/10 02:30:02;;;;;;;;;;;;;;;22.42;80.65;96144.27;606642;234;66883;-69
2022/06/10 02:32:31;;;;;;;;;;;;;;;22.42;80.64;96150.41;606624;234;64932;-67
2022/06/10 02:34:58;;;;;;;;;;;;;;;22.42;80.63;96152.30;606631;234;67360;-67
2022/06/10 02:37:43;;;;;;;;;;;;;;;22.42;80.65;96160.33;606608;234;67060;-67
2022/06/10 02:40:30;;;;;;;;;;;;;;;22.43;80.73;96164.61;606646;234;64869;-70
2022/06/10 02:42:59;;;;;;;;;;;;;;;22.41;80.80;96161.43;606679;234;67286;-68
2022/06/10 02:45:28;;;;;;;;;;;;;;;22.41;80.80;96159.54;606459;234;67045;-68
2022/06/10 02:48:01;;;;;;;;;;;;;;;22.41;80.84;96161.43;606651;232;62758;-68
2022/06/10 02:50:28;;;;;;;;;;;;;;;22.41;80.84;96166.78;606664;234;64977;-68
2022/06/10 02:52:56;;;;;;;;;;;;;;;22.42;80.84;96176.39;606662;234;64928;-68
2022/06/10 02:55:25;;;;;;;;;;;;;;;22.41;80.77;96174.81;606650;234;62958;-68
2022/06/10 03:03:32;;;;;;;;;;;;;;;22.40;80.84;96163.32;606660;234;65145;-67
2022/06/10 03:06:05;;;;;;;;;;;;;;;22.39;80.85;96165.18;606388;234;67215;-68
2022/06/10 03:08:34;;;;;;;;;;;;;;;22.39;80.85;96173.21;606549;234;64775;-69
2022/06/10 03:11:09;;;;;;;;;;;;;;;22.40;80.90;96166.00;606595;233;66078;-69
2022/06/10 03:13:57;;;;;;;;;;;;;;;22.40;80.98;96171.35;606630;234;67237;-68
2022/06/10 03:16:32;;;;;;;;;;;;;;;22.39;80.97;96173.21;606468;234;66696;-68
2022/06/10 03:19:01;;;;;;;;;;;;;;;22.41;80.98;96177.49;605529;234;63357;-68
2022/06/10 03:21:39;;;;;;;;;;;;;;;22.39;80.94;96175.89;606641;234;65036;-68
2022/06/10 03:24:14;;;;;;;;;;;;;;;22.39;80.95;96178.56;606651;234;67308;-69
2022/06/10 03:26:44;;;;;;;;;;;;;;;22.38;80.96;96176.99;606654;234;65333;-69
2022/06/10 03:29:12;;;;;;;;;;;;;;;22.39;80.99;96185.81;606165;234;67226;-69
2022/06/10 03:31:41;;;;;;;;;;;;;;;22.40;81.05;96187.41;606393;234;67160;-68
2022/06/10 03:34:16;;;;;;;;;;;;;;;22.40;81.05;96187.41;606646;234;65743;-69
2022/06/10 03:36:46;;;;;;;;;;;;;;;22.39;81.03;96188.48;606700;234;67913;-69
2022/06/10 03:39:14;;;;;;;;;;;;;;;22.39;81.09;96185.81;606627;234;66970;-69
2022/06/10 03:41:43;;;;;;;;;;;;;;;22.38;81.10;96186.91;606692;234;65105;-69
2022/06/10 03:44:15;;;;;;;;;;;;;;;22.38;81.16;96187.70;606084;234;64640;-69
2022/06/10 03:46:44;;;;;;;;;;;;;;;22.39;81.16;96194.62;606632;234;67053;-69
2022/06/10 03:49:13;;;;;;;;;;;;;;;22.39;81.25;96191.95;606570;232;64903;-69
2022/06/10 03:51:42;;;;;;;;;;;;;;;22.38;81.22;96193.05;606692;234;67429;-69
2022/06/10 03:54:10;;;;;;;;;;;;;;;22.39;81.27;96194.62;606649;234;67035;-69
2022/06/10 03:56:37;;;;;;;;;;;;;;;22.38;81.26;96193.05;606652;234;64861;-68
2022/06/10 03:59:05;;;;;;;;;;;;;;;22.39;81.29;96199.20;606625;234;64829;-68
2022/06/10 04:01:32;;;;;;;;;;;;;;;22.38;81.28;96203.77;606632;234;64891;-68
2022/06/10 04:04:00;;;;;;;;;;;;;;;22.38;81.25;96209.12;606696;234;63092;-68
2022/06/10 04:06:27;;;;;;;;;;;;;;;22.38;81.31;96206.44;606689;234;64655;-68
2022/06/10 04:08:55;;;;;;;;;;;;;;;22.38;81.32;96201.09;606630;234;66831;-68
2022/06/10 04:11:23;;;;;;;;;;;;;;;22.38;81.32;96209.12;605555;233;65032;-68
2022/06/10 04:13:51;;;;;;;;;;;;;;;22.38;81.31;96209.12;605283;234;67021;-68
2022/06/10 04:16:19;;;;;;;;;;;;;;;22.39;81.35;96209.91;605373;234;66812;-68
2022/06/10 04:18:46;;;;;;;;;;;;;;;22.39;81.39;96210.69;605334;234;64951;-68
2022/06/10 04:21:14;;;;;;;;;;;;;;;22.38;81.35;96209.12;605314;234;66960;-69
2022/06/10 04:23:41;;;;;;;;;;;;;;;22.38;81.34;96206.44;605344;234;66672;-68
2022/06/10 04:26:09;;;;;;;;;;;;;;;22.38;81.37;96214.47;605343;234;65035;-68
2022/06/10 04:28:36;;;;;;;;;;;;;;;22.39;81.35;96223.29;605343;234;66780;-68
2022/06/10 04:31:04;;;;;;;;;;;;;;;22.38;81.32;96225.18;605313;234;64680;-68
2022/06/10 04:33:34;;;;;;;;;;;;;;;22.37;81.41;96226.28;605320;234;65075;-68
2022/06/10 04:36:02;;;;;;;;;;;;;;;22.38;81.43;96232.42;605325;234;64982;-68
2022/06/10 04:38:30;;;;;;;;;;;;;;;22.37;81.46;96234.31;605261;234;65296;-68
2022/06/10 04:40:58;;;;;;;;;;;;;;;22.37;81.54;96234.31;605307;234;65054;-68
2022/06/10 04:43:27;;;;;;;;;;;;;;;22.38;81.49;96235.10;605360;234;67028;-68
2022/06/10 04:45:56;;;;;;;;;;;;;;;22.37;81.50;96228.95;605312;234;67135;-69
2022/06/10 04:48:24;;;;;;;;;;;;;;;22.37;81.54;96234.31;605320;234;63727;-69
2022/06/10 04:50:51;;;;;;;;;;;;;;;22.37;81.53;96236.17;605296;234;67271;-69
2022/06/10 04:53:19;;;;;;;;;;;;;;;22.37;81.53;96242.34;605323;234;67023;-69
2022/06/10 04:55:47;;;;;;;;;;;;;;;22.38;81.52;96245.81;605360;234;64926;-69
2022/06/10 04:58:14;;;;;;;;;;;;;;;22.37;81.55;96250.37;605304;234;66956;-69
2022/06/10 05:00:44;;;;;;;;;;;;;;;22.37;81.54;96255.73;605297;234;67078;-69
2022/06/10 05:03:12;;;;;;;;;;;;;;;22.37;81.68;96250.37;605275;234;65128;-69
2022/06/10 05:05:40;;;;;;;;;;;;;;;22.37;81.68;96250.37;605293;234;65066;-69
2022/06/10 05:08:09;;;;;;;;;;;;;;;22.37;81.74;96250.37;605332;234;66959;-69
2022/06/10 05:10:36;;;;;;;;;;;;;;;22.36;81.73;96251.45;605264;233;62900;-68
2022/06/10 05:13:08;;;;;;;;;;;;;;;22.36;81.70;96243.41;605332;234;65007;-69
2022/06/10 05:15:35;;;;;;;;;;;;;;;22.37;81.70;96242.34;605306;233;67048;-68
2022/06/10 05:18:03;;;;;;;;;;;;;;;22.37;81.66;96249.55;605323;234;62760;-69
2022/06/10 05:20:33;;;;;;;;;;;;;;;22.35;81.65;96252.55;605091;234;65070;-69
2022/06/10 05:23:01;;;;;;;;;;;;;;;22.37;81.67;96257.59;605010;234;65025;-69
2022/06/10 05:25:29;;;;;;;;;;;;;;;22.37;81.72;96266.44;605070;234;65049;-69
2022/06/10 05:27:56;;;;;;;;;;;;;;;22.36;81.70;96264.83;604900;234;67292;-69
2022/06/10 05:30:25;;;;;;;;;;;;;;;22.36;81.70;96264.83;605292;234;67034;-69
2022/06/10 05:32:53;;;;;;;;;;;;;;;22.36;81.77;96262.16;605351;234;65174;-69
2022/06/10 05:35:21;;;;;;;;;;;;;;;22.37;81.85;96262.94;605261;234;67201;-69
2022/06/10 05:37:48;;;;;;;;;;;;;;;22.35;81.81;96257.91;605313;234;67007;-69
2022/06/10 05:40:16;;;;;;;;;;;;;;;22.36;81.76;96264.05;605288;234;65025;-69
2022/06/10 05:42:43;;;;;;;;;;;;;;;22.36;81.78;96266.72;605314;234;67415;-69
2022/06/10 05:45:17;;;;;;;;;;;;;;;22.35;81.76;96260.58;605366;234;66784;-69
2022/06/10 05:47:45;;;;;;;;;;;;;;;22.36;81.84;96264.05;605297;234;62800;-69
2022/06/10 05:50:14;;;;;;;;;;;;;;;22.35;81.87;96263.25;605294;234;67979;-69
2022/06/10 05:52:43;;;;;;;;;;;;;;;22.35;81.91;96262.47;605100;233;65203;-69
2022/06/10 05:55:11;;;;;;;;;;;;;;;22.35;81.93;96259.80;605342;234;62996;-69
2022/06/10 05:57:39;;;;;;;;;;;;;;;22.36;81.93;96258.69;605282;234;65056;-69
2022/06/10 06:00:08;;;;;;;;;;;;;;;22.35;81.90;96265.93;605324;234;66865;-69
2022/06/10 06:02:36;;;;;;;;;;;;;;;22.35;81.90;96268.61;605292;234;65054;-69
2022/06/10 06:05:03;;;;;;;;;;;;;;;22.34;81.91;96266.22;605153;234;67071;-68
2022/06/10 06:07:31;;;;;;;;;;;;;;;22.35;81.89;96267.83;605278;234;67098;-69
2022/06/10 06:09:59;;;;;;;;;;;;;;;22.36;81.11;96264.05;605261;233;65050;-75
2022/06/10 06:12:26;;;;;;;;;;;;;;;22.36;81.93;96262.16;605345;234;66788;-72
2022/06/10 06:14:54;;;;;;;;;;;;;;;22.34;82.04;96261.69;604435;234;66930;-69
2022/06/10 06:17:22;;;;;;;;;;;;;;;22.34;80.69;96267.03;605245;234;65063;-70
2022/06/10 06:19:49;;;;;;;;;;;;;;;22.33;80.92;96257.41;605295;234;65357;-70
2022/06/10 06:22:19;;;;;;;;;;;;;;;22.35;80.83;96263.25;605232;234;52288;-69
2022/06/10 06:24:46;;;;;;;;;;;;;;;22.36;80.99;96264.05;603109;234;64888;-70
2022/06/10 06:27:16;;;;;;;;;;;;;;;22.37;81.18;96270.97;598596;237;67338;-69
2022/06/10 06:29:45;;;;;;;;;;;;;;;22.36;81.35;96278.22;599636;234;65905;-69
2022/06/10 06:32:12;;;;;;;;;;;;;;;22.37;81.50;96265.62;605231;234;65030;-69
2022/06/10 06:34:41;;;;;;;;;;;;;;;22.37;81.65;96266.44;605265;234;67301;-70
2022/06/10 06:37:10;;;;;;;;;;;;;;;22.38;81.68;96267.23;605298;234;66869;-70
2022/06/10 06:39:37;;;;;;;;;;;;;;;22.38;81.74;96278.72;605970;232;62915;-70
2022/06/10 06:42:05;;;;;;;;;;;;;;;22.39;81.84;96271.48;605229;234;64918;-70
2022/06/10 06:44:35;;;;;;;;;;;;;;;22.39;81.96;96266.13;605266;232;43748;-69
2022/06/10 06:47:02;;;;;;;;;;;;;;;22.39;82.09;96260.77;605258;234;62849;-69
2022/06/10 06:49:30;;;;;;;;;;;;;;;22.39;81.87;96261.55;605219;234;67228;-68
2022/06/10 06:51:57;;;;;;;;;;;;;;;22.39;82.01;96264.23;605304;234;66945;-71
2022/06/10 06:54:25;;;;;;;;;;;;;;;22.39;81.96;96264.23;605253;234;62918;-70
2022/06/10 06:56:52;;;;;;;;;;;;;;;22.40;82.04;96259.70;605240;234;65012;-71
2022/06/10 06:59:20;;;;;;;;;;;;;;;22.41;81.91;96263.16;605281;234;64483;-69
2022/06/10 07:01:47;;;;;;;;;;;;;;;22.41;81.93;96265.84;604956;234;61949;-68
2022/06/10 07:04:15;;;;;;;;;;;;;;;22.41;81.93;96266.63;605245;234;67326;-69
2022/06/10 07:06:43;;;;;;;;;;;;;;;22.41;81.92;96265.84;605247;234;67443;-69
2022/06/10 07:09:11;;;;;;;;;;;;;;;22.40;82.01;96267.73;605089;234;62744;-68
2022/06/10 07:11:38;;;;;;;;;;;;;;;22.42;82.06;96270.09;606410;234;65139;-68
2022/06/10 07:14:06;;;;;;;;;;;;;;;22.42;82.05;96283.48;606544;233;67225;-68
2022/06/10 07:16:33;;;;;;;;;;;;;;;22.43;81.91;96274.37;606623;234;65064;-68
2022/06/10 07:19:01;;;;;;;;;;;;;;;22.42;81.98;96270.09;606526;234;67302;-69
2022/06/10 07:21:30;;;;;;;;;;;;;;;22.43;82.03;96269.02;606441;234;67057;-68
2022/06/10 07:23:57;;;;;;;;;;;;;;;22.42;82.00;96272.77;606582;234;63038;-68
2022/06/10 07:26:25;;;;;;;;;;;;;;;22.42;81.88;96275.44;606381;234;66795;-71
2022/06/10 07:28:52;;;;;;;;;;;;;;;22.42;80.65;96284.27;606589;234;67114;-70
2022/06/10 07:31:20;;;;;;;;;;;;;;;22.43;80.92;96277.84;606603;232;63116;-70
2022/06/10 07:33:47;;;;;;;;;;;;;;;22.43;80.95;96277.05;606543;232;67300;-69
2022/06/10 07:36:15;;;;;;;;;;;;;;;22.44;81.38;96275.95;606581;234;67080;-69
2022/06/10 07:38:42;;;;;;;;;;;;;;;22.43;81.51;96279.73;606552;234;65099;-70
2022/06/10 07:43:55;;;;;;;;;;;;;;;22.44;81.51;96286.66;606640;234;64886;-69
2022/06/10 07:46:23;;;;;;;;;;;;;;;22.44;81.46;96292.02;606498;234;62890;-70
2022/06/10 07:48:51;;;;;;;;;;;;;;;22.44;81.54;96286.66;606499;234;65038;-70
2022/06/10 07:51:19;;;;;;;;;;;;;;;22.43;81.67;96290.44;606601;234;64817;-70
2022/06/10 07:53:47;;;;;;;;;;;;;;;22.43;81.59;96293.90;606505;234;66195;-70
2022/06/10 07:56:15;;;;;;;;;;;;;;;22.44;81.60;96292.02;606560;234;67180;-71
2022/06/10 07:58:44;;;;;;;;;;;;;;;22.44;81.64;96297.37;606628;234;66923;-70
2022/06/10 08:01:11;;;;;;;;;;;;;;;22.45;81.62;96301.62;606503;234;63048;-71
2022/06/10 08:03:39;;;;;;;;;;;;;;;22.45;81.69;96315.00;606524;234;64826;-68
2022/06/10 08:06:06;;;;;;;;;;;;;;;22.44;81.77;96308.08;606620;234;64924;-70
2022/06/10 08:08:34;;;;;;;;;;;;;;;22.46;81.13;96320.08;606494;234;62784;-70
2022/06/10 08:11:02;;;;;;;;;;;;;;;22.46;80.89;96311.25;609251;232;64803;-70
2022/06/10 08:13:29;;;;;;;;;;;;;;;22.45;81.35;96310.44;610430;232;66511;-70
2022/06/10 08:15:57;;;;;;;;;;;;;;;22.45;81.66;96310.44;610473;232;64845;-70
2022/06/10 08:18:25;;;;;;;;;;;;;;;22.44;81.69;96314.22;610524;232;64733;-69
2022/06/10 08:23:41;;;;;;;;;;;;;;;22.45;81.66;96323.83;610439;232;65311;-68
2022/06/10 08:26:08;;;;;;;;;;;;;;;22.44;81.54;96324.92;605055;234;66714;-69
2022/06/10 08:28:37;;;;;;;;;;;;;;;22.45;81.62;96320.36;612249;231;64504;-70
2022/06/10 08:31:05;;;;;;;;;;;;;;;22.45;81.61;96325.72;612240;231;63001;-70
2022/06/10 08:33:33;;;;;;;;;;;;;;;22.44;81.54;96324.92;612200;231;64710;-70
2022/06/10 08:36:01;;;;;;;;;;;;;;;22.45;81.42;96331.06;612213;231;66998;-70
2022/06/10 08:38:28;;;;;;;;;;;;;;;22.45;81.44;96328.39;605416;232;64908;-70
2022/06/10 08:41:14;;;;;;;;;;;;;;;22.45;81.48;96325.72;603891;234;67070;-74
2022/06/10 08:43:43;;;;;;;;;;;;;;;22.45;81.48;96344.45;612214;231;67897;-73
2022/06/10 08:46:29;;;;;;;;;;;;;;;22.43;76.36;96333.27;612305;231;65976;-72
2022/06/10 08:49:16;;;;;;;;;;;;;;;22.47;77.61;96339.61;612265;231;65105;-73
2022/06/10 08:51:55;;;;;;;;;;;;;;;22.45;76.55;96337.21;612421;229;66902;-70
2022/06/10 08:54:26;;;;;;;;;;;;;;;22.46;77.95;96338.03;612337;231;65130;-72
2022/06/10 08:56:56;;;;;;;;;;;;;;;22.46;78.37;96343.38;612461;229;67162;-71
2022/06/10 08:59:25;;;;;;;;;;;;;;;22.46;78.93;96341.50;612253;231;64645;-71
2022/06/10 09:01:54;;;;;;;;;;;;;;;22.46;79.27;96343.38;612126;229;63632;-71
2022/06/10 09:04:23;;;;;;;;;;;;;;;22.46;79.69;96340.70;611995;231;64770;-71
2022/06/10 09:06:52;;;;;;;;;;;;;;;22.47;79.86;96342.28;612059;231;64842;-71
2022/06/10 09:09:21;;;;;;;;;;;;;;;22.47;80.01;96344.96;612003;231;65090;-71
2022/06/10 09:11:53;;;;;;;;;;;;;;;22.47;80.18;96350.31;611220;231;64925;-71
2022/06/10 09:14:22;;;;;;;;;;;;;;;22.46;80.51;96352.20;611487;232;66918;-71
2022/06/10 09:16:54;;;;;;;;;;;;;;;22.47;80.47;96353.78;611574;230;62781;-74
2022/06/10 09:19:26;;;;;;;;;;;;;;;22.47;80.57;96350.31;611629;229;64807;-69
2022/06/10 09:21:55;;;;;;;;;;;;;;;22.49;80.29;96358.86;611557;232;66936;-71
2022/06/10 09:24:39;;;;;;;;;;;;;;;22.49;80.44;96359.64;611655;230;64910;-71
2022/06/10 09:27:09;;;;;;;;;;;;;;;22.48;80.60;96358.06;611566;232;65816;-70
2022/06/10 09:29:38;;;;;;;;;;;;;;;22.49;80.54;96350.82;611601;229;66664;-71
2022/06/10 09:32:08;;;;;;;;;;;;;;;22.49;80.74;96350.82;611546;232;65124;-71
2022/06/10 09:34:47;;;;;;;;;;;;;;;22.49;80.81;96356.17;611503;232;65133;-71
2022/06/10 09:37:32;;;;;;;;;;;;;;;22.48;80.93;96351.89;611525;229;67393;-71
2022/06/10 09:43:09;;;;;;;;;;;;;;;22.49;81.10;96364.20;611521;232;67233;-70
2022/06/10 09:45:50;;;;;;;;;;;;;;;22.48;81.16;96355.39;611526;232;67252;-71
2022/06/10 09:48:22;;;;;;;;;;;;;;;22.48;81.16;96355.39;611591;230;62938;-70
2022/06/10 09:51:03;;;;;;;;;;;;;;;22.48;81.17;96354.56;611560;232;67113;-69
2022/06/10 09:53:36;;;;;;;;;;;;;;;22.48;81.24;96363.42;611504;232;67044;-74
2022/06/10 09:56:08;;;;;;;;;;;;;;;22.48;81.24;96362.60;611562;232;65089;-73
2022/06/10 09:58:37;;;;;;;;;;;;;;;22.49;81.33;96358.86;611730;230;64866;-72
2022/06/10 10:01:21;;;;;;;;;;;;;;;22.48;81.37;96362.60;611546;232;64934;-71
2022/06/10 10:03:56;;;;;;;;;;;;;;;22.48;81.91;96362.60;611727;229;65103;-70
2022/06/10 10:06:31;;;;;;;;;;;;;;;22.48;81.54;96367.95;612047;229;65060;-68
2022/06/10 10:09:00;;;;;;;;;;;;;;;22.48;81.53;96362.60;611340;232;66983;-68
2022/06/10 10:11:30;;;;;;;;;;;;;;;22.48;81.42;96362.60;608824;230;64927;-71
2022/06/10 10:14:02;;;;;;;;;;;;;;;22.48;81.26;96370.63;608378;233;67079;-71
2022/06/10 10:16:37;;;;;;;;;;;;;;;22.48;81.29;96363.42;608313;232;67053;-71
2022/06/10 10:19:14;;;;;;;;;;;;;;;22.47;81.21;96372.52;608676;228;62721;-71
2022/06/10 10:22:01;;;;;;;;;;;;;;;22.48;81.17;96373.31;608639;228;64820;-72
2022/06/10 10:24:30;;;;;;;;;;;;;;;22.48;81.20;96378.66;608775;228;66996;-74
2022/06/10 10:26:58;;;;;;;;;;;;;;;22.49;81.17;96369.56;608453;228;65065;-71
2022/06/10 10:29:27;;;;;;;;;;;;;;;22.48;81.17;96373.31;608392;233;67213;-71
2022/06/10 10:32:02;;;;;;;;;;;;;;;22.49;81.04;96377.59;608444;233;67058;-70
2022/06/10 10:34:34;;;;;;;;;;;;;;;22.49;80.94;96377.59;608580;228;64897;-70
2022/06/10 10:37:03;;;;;;;;;;;;;;;22.49;80.93;96377.59;608491;228;67069;-70
2022/06/10 10:39:36;;;;;;;;;;;;;;;22.49;80.98;96377.59;608434;233;64850;-71
2022/06/10 10:42:04;;;;;;;;;;;;;;;22.50;81.02;96376.50;609045;231;64850;-70
2022/06/10 10:44:46;;;;;;;;;;;;;;;22.49;81.07;96380.27;608418;233;67039;-71
2022/06/10 10:47:15;;;;;;;;;;;;;;;22.50;81.15;96387.20;608508;233;66857;-72
2022/06/10 10:49:44;;;;;;;;;;;;;;;22.49;81.18;96389.09;608288;233;65108;-71
2022/06/10 10:52:22;;;;;;;;;;;;;;;22.48;79.32;96384.02;608414;233;68057;-69
2022/06/10 10:54:52;;;;;;;;;;;;;;;22.49;80.89;96378.38;608336;233;65847;-69
2022/06/10 10:57:29;;;;;;;;;;;;;;;22.49;80.79;96377.59;607903;233;65035;-69
2022/06/10 10:59:57;;;;;;;;;;;;;;;22.50;80.88;96381.85;608300;233;67069;-70
2022/06/10 11:02:36;;;;;;;;;;;;;;;22.50;80.96;96381.85;608568;228;66973;-69
2022/06/10 11:05:21;;;;;;;;;;;;;;;22.49;80.93;96377.59;608253;231;64990;-69
2022/06/10 11:07:50;;;;;;;;;;;;;;;22.48;80.86;96371.45;608435;233;64928;-68
2022/06/10 11:10:19;;;;;;;;;;;;;;;22.49;80.84;96374.92;610163;228;65717;-68
2022/06/10 11:12:47;;;;;;;;;;;;;;;22.49;80.85;96374.92;611556;232;64846;-68
2022/06/10 11:15:19;;;;;;;;;;;;;;;22.49;80.83;96374.92;611552;232;66768;-68
2022/06/10 11:17:48;;;;;;;;;;;;;;;22.49;80.84;96375.70;611585;229;66921;-69
2022/06/10 11:20:17;;;;;;;;;;;;;;;22.49;80.79;96381.06;611530;232;64839;-69
2022/06/10 11:22:46;;;;;;;;;;;;;;;22.49;80.79;96378.38;611164;230;67298;-69
2022/06/10 11:25:15;;;;;;;;;;;;;;;22.49;80.72;96381.06;611532;232;64857;-69
2022/06/10 11:27:50;;;;;;;;;;;;;;;22.49;80.77;96377.59;611414;232;64808;-69
2022/06/10 11:30:19;;;;;;;;;;;;;;;22.49;80.77;96375.70;611598;232;64726;-69
2022/06/10 11:32:52;;;;;;;;;;;;;;;22.50;80.79;96376.50;611669;232;66751;-68
2022/06/10 11:35:21;;;;;;;;;;;;;;;22.50;80.80;96365.78;611580;232;64957;-69
2022/06/10 11:37:50;;;;;;;;;;;;;;;22.49;80.74;96354.28;611591;232;68198;-70
2022/06/10 11:40:19;;;;;;;;;;;;;;;22.49;80.81;96356.96;611621;232;66764;-70
2022/06/10 11:42:48;;;;;;;;;;;;;;;22.50;80.64;96360.43;611352;230;65104;-69
2022/06/10 11:45:20;;;;;;;;;;;;;;;22.50;79.79;96358.54;611075;229;67043;-69
2022/06/10 11:47:49;;;;;;;;;;;;;;;22.50;80.02;96355.86;598316;232;68236;-68
2022/06/10 11:50:19;;;;;;;;;;;;;;;22.51;80.25;96360.15;610937;230;64847;-69
2022/06/10 11:52:48;;;;;;;;;;;;;;;22.51;80.41;96362.03;611484;232;67035;-71
2022/06/10 11:55:20;;;;;;;;;;;;;;;22.51;80.48;96362.03;611447;230;66773;-72
2022/06/10 12:00:41;;;;;;;;;;;;;;;22.52;78.58;96353.69;611576;232;64796;-73
2022/06/10 12:03:11;;;;;;;;;;;;;;;22.53;80.30;96343.77;611570;230;67166;-73
2022/06/10 12:05:49;;;;;;;;;;;;;;;22.50;80.49;96336.33;611571;232;62888;-74
2022/06/10 12:08:18;;;;;;;;;;;;;;;22.49;80.46;96337.44;611609;230;64845;-72
2022/06/10 12:10:50;;;;;;;;;;;;;;;22.49;80.26;96340.90;609778;229;65118;-74
2022/06/10 12:13:18;;;;;;;;;;;;;;;22.50;80.05;96350.51;608496;228;63684;-74
2022/06/10 12:15:47;;;;;;;;;;;;;;;22.49;79.96;96353.50;608445;233;64936;-74
2022/06/10 12:18:16;;;;;;;;;;;;;;;22.49;79.82;96348.93;608488;228;64831;-74
2022/06/10 12:20:48;;;;;;;;;;;;;;;22.50;79.72;96344.36;608502;233;64882;-74
2022/06/10 12:23:24;;;;;;;;;;;;;;;22.49;79.62;96348.14;608478;233;67108;-74
2022/06/10 12:25:53;;;;;;;;;;;;;;;22.50;79.52;96352.40;608479;233;66696;-75
2022/06/10 12:28:28;;;;;;;;;;;;;;;22.49;79.46;96346.25;608508;228;64909;-74
2022/06/10 12:31:00;;;;;;;;;;;;;;;22.49;79.42;96343.58;608570;228;66553;-75
2022/06/10 12:33:31;;;;;;;;;;;;;;;22.49;79.36;96350.82;608481;231;66617;-73
2022/06/10 12:35:59;;;;;;;;;;;;;;;22.49;79.33;96354.28;608550;228;65087;-72
2022/06/10 12:38:28;;;;;;;;;;;;;;;22.49;79.27;96348.93;608397;233;67247;-72
2022/06/10 12:40:59;;;;;;;;;;;;;;;22.50;79.23;96355.86;608473;231;67008;-72
2022/06/10 12:43:32;;;;;;;;;;;;;;;22.49;79.22;96362.32;608485;228;63646;-72
2022/06/10 12:46:16;;;;;;;;;;;;;;;22.49;79.10;96353.50;608502;233;66790;-72
2022/06/10 12:48:46;;;;;;;;;;;;;;;22.51;79.11;96351.33;608557;233;66698;-73
2022/06/10 12:51:16;;;;;;;;;;;;;;;22.50;79.17;96347.83;608353;231;64920;-73
2022/06/10 12:53:54;;;;;;;;;;;;;;;22.50;79.30;96341.69;608409;233;64640;-69
2022/06/10 12:56:22;;;;;;;;;;;;;;;22.51;79.40;96340.61;608499;233;66986;-73
2022/06/10 12:58:53;;;;;;;;;;;;;;;22.52;79.52;96344.87;607719;233;65021;-69
2022/06/10 13:01:22;;;;;;;;;;;;;;;22.50;79.58;96347.83;608354;233;68344;-69
2022/06/10 13:03:55;;;;;;;;;;;;;;;22.51;79.66;96345.97;608493;233;66881;-69
2022/06/10 13:06:27;;;;;;;;;;;;;;;22.51;79.68;96348.65;608451;233;63131;-72
2022/06/10 13:08:57;;;;;;;;;;;;;;;22.50;79.70;96349.72;608105;231;64695;-70
2022/06/10 13:11:45;;;;;;;;;;;;;;;22.51;79.74;96345.97;610983;232;66915;-71
2022/06/10 13:14:23;;;;;;;;;;;;;;;22.50;79.78;96344.36;611512;232;64914;-69
2022/06/10 13:16:51;;;;;;;;;;;;;;;22.50;79.84;96339.80;611425;232;67186;-71
2022/06/10 13:19:36;;;;;;;;;;;;;;;22.51;79.92;96332.58;611258;230;66637;-71
2022/06/10 13:22:21;;;;;;;;;;;;;;;22.50;79.99;96328.30;611543;232;63103;-70